Flight Track Log - Related Links

Times and Time Zones

All times are in EDT time to prevent confusion due to time zone crossing. See the SWA824 flight status page for this flight to view local times or setup timezone preferences in your user account.

Time Position Orientation Groundspeed Altitude Reporting Facility
EDT Latitude Longitude Course Direction KTS MPH feet Rate Location/Type
Sun 09:37:09 PM 27.9833 -82.5333 353° North 145 167 500  Level Tampa TRACON
Sun 09:39:08 PM 28.0994 -82.5492 353° North 223 257 4,400 2,547 Climbing Jacksonville Center
Sun 09:40:08 PM 28.1600 -82.5983 324° Northwest 231 266 8,100 3,300 Climbing Jacksonville Center
Sun 09:41:08 PM 28.2269 -82.6500 326° Northwest 267 307 11,000 2,800 Climbing Jacksonville Center
Sun 09:42:08 PM 28.3083 -82.7111 327° Northwest 315 362 13,700 2,800 Climbing Jacksonville Center
Sun 09:43:08 PM 28.3983 -82.7794 326° Northwest 359 413 16,600 3,000 Climbing Jacksonville Center
Sun 09:44:08 PM 28.4797 -82.8500 323° Northwest 371 427 19,700 2,550 Climbing Jacksonville Center
Sun 09:45:08 PM 28.5861 -82.8950 340° North 376 433 21,700 2,200 Climbing Jacksonville Center
Sun 09:46:08 PM 28.6967 -82.9306 344° North 395 455 24,100 2,400 Climbing Jacksonville Center
Sun 09:47:08 PM 28.8072 -82.9708 342° North 407 468 26,500 1,850 Climbing Jacksonville Center
Sun 09:48:08 PM 28.9242 -83.0089 344° North 412 474 27,800 1,300 Climbing Jacksonville Center
Sun 09:49:08 PM 29.0453 -83.0542 342° North 427 491 29,100 1,350 Climbing Jacksonville Center
Sun 09:50:08 PM 29.1683 -83.0969 343° North 447 514 30,500 1,750 Climbing Jacksonville Center
Sun 09:51:08 PM 29.2933 -83.1425 342° North 462 532 32,600 2,000 Climbing Jacksonville Center
Sun 09:52:08 PM 29.4164 -83.1883 342° North 462 532 34,500 1,750 Climbing Jacksonville Center
Sun 09:53:08 PM 29.5311 -83.2292 343° North 462 532 36,100 1,700 Climbing Jacksonville Center
Sun 09:54:08 PM 29.6564 -83.2750 342° North 448 516 37,900 900 Climbing Jacksonville Center
Sun 09:55:08 PM 29.7772 -83.3186 343° North 443 510 37,900  Level Jacksonville Center
Sun 09:56:08 PM 29.8939 -83.3597 343° North 443 510 37,900  Level Jacksonville Center
Sun 09:57:08 PM 30.0150 -83.4036 343° North 443 510 37,900  Level Jacksonville Center
Sun 09:58:08 PM 30.1317 -83.4450 343° North 443 510 37,900  Level Jacksonville Center
Sun 09:59:08 PM 30.2506 -83.4867 343° North 443 510 37,900  Level Jacksonville Center
Sun 10:00:08 PM 30.3694 -83.5306 342° North 443 510 37,900  Level Jacksonville Center
Sun 10:01:08 PM 30.4881 -83.5725 343° North 443 510 37,900 50 Level Jacksonville Center
Sun 10:02:08 PM 30.5922 -83.6117 342° North 443 510 38,000 50 Climbing Jacksonville Center
Sun 10:03:08 PM 30.7153 -83.6586 342° North 443 510 38,000  Level Jacksonville Center
Sun 10:04:08 PM 30.8361 -83.7031 342° North 448 516 38,000  Level Jacksonville Center
Sun 10:05:08 PM 30.9569 -83.7453 343° North 448 516 38,000  Level Jacksonville Center
Sun 10:06:08 PM 31.0733 -83.7925 341° North 442 509 38,000  Level Jacksonville Center
Sun 10:07:08 PM 31.1964 -83.8228 348° North 442 509 38,000  Level Jacksonville Center
Sun 10:09:17 PM 31.4711 -83.8878 349° North 458 527 38,000  Level Atlanta Center
Sun 10:10:16 PM 31.5942 -83.9194 348° North 453 521 38,000  Level Atlanta Center
Sun 10:11:16 PM 31.7217 -83.9486 349° North 453 521 38,000  Level Atlanta Center
Sun 10:12:17 PM 31.8425 -83.9728 350° North 453 521 38,000  Level Atlanta Center
Sun 10:13:17 PM 31.9636 -84.0047 347° North 448 516 38,000  Level Atlanta Center
Sun 10:14:16 PM 32.0847 -84.0314 349° North 448 516 38,000  Level Atlanta Center
Sun 10:15:17 PM 32.1828 -84.0561 348° North 448 516 38,000  Level Atlanta Center
Sun 10:16:16 PM 32.3122 -84.0856 349° North 442 509 38,000  Level Atlanta Center
Sun 10:17:17 PM 32.4311 -84.1175 347° North 442 509 38,000  Level Atlanta Center
Sun 10:18:16 PM 32.5522 -84.1422 350° North 437 503 38,000  Level Atlanta Center
Sun 10:19:17 PM 32.6692 -84.1744 347° North 431 496 38,000  Level Atlanta Center
Sun 10:20:17 PM 32.7881 -84.1994 350° North 431 496 38,000  Level Atlanta Center
Sun 10:21:17 PM 32.9050 -84.2294 348° North 426 490 38,000  Level Atlanta Center
Sun 10:22:16 PM 33.0239 -84.2594 348° North 431 496 38,000  Level Atlanta Center
Sun 10:23:17 PM 33.1447 -84.2869 349° North 431 496 38,000  Level Atlanta Center
Sun 10:24:17 PM 33.2722 -84.3172 349° North 431 496 38,000  Level Atlanta Center
Sun 10:25:16 PM 33.3931 -84.3497 347° North 431 496 38,000  Level Atlanta Center
Sun 10:26:17 PM 33.5100 -84.3778 349° North 426 490 38,000  Level Atlanta Center
Sun 10:27:16 PM 33.6142 -84.4056 347° North 432 497 38,000  Level Atlanta Center
Sun 10:28:17 PM 33.7353 -84.4336 349° North 432 497 38,000  Level Atlanta Center
Sun 10:29:16 PM 33.8561 -84.4642 348° North 432 497 38,000  Level Atlanta Center
Sun 10:30:17 PM 33.9708 -84.4922 349° North 432 497 38,000  Level Atlanta Center
Sun 10:31:17 PM 34.0897 -84.5228 348° North 432 497 38,000  Level Atlanta Center
Sun 10:32:17 PM 34.2253 -84.5539 349° North 443 510 38,000  Level Atlanta Center
Sun 10:33:17 PM 34.3461 -84.5847 348° North 438 504 38,000  Level Atlanta Center
Sun 10:34:16 PM 34.4650 -84.6158 348° North 438 504 38,000  Level Atlanta Center
Sun 10:35:17 PM 34.5858 -84.6442 349° North 438 504 38,000  Level Atlanta Center
Sun 10:36:17 PM 34.6881 -84.6728 347° North 428 493 38,000  Level Atlanta Center
Sun 10:37:17 PM 34.8089 -84.7042 348° North 428 493 38,000  Level Atlanta Center
Sun 10:38:16 PM 34.9317 -84.7356 348° North 433 498 38,000  Level Atlanta Center
Sun 10:39:16 PM 35.0506 -84.7644 349° North 438 504 38,000  Level Atlanta Center
Sun 10:40:17 PM 35.1694 -84.7958 348° North 438 504 38,000  Level Atlanta Center
Sun 10:41:16 PM 35.2903 -84.8275 348° North 433 498 38,000  Level Atlanta Center
Sun 10:42:17 PM 35.4111 -84.8567 349° North 433 498 38,000  Level Atlanta Center
Sun 10:43:17 PM 35.5317 -84.8886 348° North 433 498 38,000  Level Atlanta Center
Sun 10:44:17 PM 35.6525 -84.9206 348° North 433 498 38,000  Level Atlanta Center
Sun 10:45:16 PM 35.7608 -84.9497 348° North 433 498 38,000  Level Atlanta Center
Sun 10:47:40 PM 36.0800 -85.0306 348° North 443 510 38,000  Level Indianapolis Center
Sun 10:48:41 PM 36.2008 -85.0631 348° North 443 510 38,000  Level Indianapolis Center
Sun 10:49:42 PM 36.3228 -85.0947 348° North 447 514 38,000  Level Indianapolis Center
Sun 10:50:43 PM 36.4447 -85.1269 348° North 446 513 38,000  Level Indianapolis Center
Sun 10:51:43 PM 36.5669 -85.1594 348° North 449 517 38,000  Level Indianapolis Center
Sun 10:52:44 PM 36.6883 -85.1922 348° North 447 514 38,000  Level Indianapolis Center
Sun 10:53:45 PM 36.8119 -85.2242 348° North 452 520 38,000  Level Indianapolis Center
Sun 10:54:45 PM 36.9350 -85.2575 348° North 452 520 38,000  Level Indianapolis Center
Sun 10:55:46 PM 37.0544 -85.2892 348° North 452 520 38,000  Level Indianapolis Center
Sun 10:56:47 PM 37.1783 -85.3228 348° North 455 524 38,000  Level Indianapolis Center
Sun 10:57:47 PM 37.3019 -85.3567 348° North 455 524 38,000  Level Indianapolis Center
Sun 10:58:48 PM 37.4253 -85.3908 348° North 455 524 38,000  Level Indianapolis Center
Sun 10:59:49 PM 37.5478 -85.4233 348° North 449 517 38,000  Level Indianapolis Center
Sun 11:00:50 PM 37.6678 -85.4589 347° North 444 511 38,000  Level Indianapolis Center
Sun 11:01:50 PM 37.7908 -85.4919 348° North 449 517 38,000  Level Indianapolis Center
Sun 11:02:51 PM 37.9106 -85.5242 348° North 452 520 38,000  Level Indianapolis Center
Sun 11:03:52 PM 38.0314 -85.5572 348° North 447 514 38,000  Level Indianapolis Center
Sun 11:04:53 PM 38.1525 -85.5886 348° North 444 511 38,000 -443 Level Indianapolis Center
Sun 11:05:54 PM 38.3006 -85.6150 352° North 446 513 37,100 -942 Descending Indianapolis Center
Sun 11:06:54 PM 38.4211 -85.6397 351° North 441 507 36,100 -942 Descending Indianapolis Center
Sun 11:07:55 PM 38.5450 -85.6617 352° North 444 511 35,200 -541 Descending Indianapolis Center
Sun 11:08:56 PM 38.6653 -85.6847 351° North 439 505 35,000 -98 Descending Indianapolis Center
Sun 11:09:57 PM 38.7839 -85.7086 351° North 433 498 35,000  Level Indianapolis Center
Sun 11:10:58 PM 38.9011 -85.7303 352° North 427 491 35,000  Level Indianapolis Center
Sun 11:11:58 PM 39.0200 -85.7539 351° North 431 496 35,000  Level Indianapolis Center
Sun 11:12:59 PM 39.1372 -85.7783 351° North 428 493 35,000  Level Indianapolis Center
Sun 11:14:00 PM 39.2533 -85.7994 352° North 423 487 35,000  Level Indianapolis Center
Sun 11:15:01 PM 39.3714 -85.8239 351° North 427 491 35,000  Level Indianapolis Center
Sun 11:16:02 PM 39.4917 -85.8472 351° North 434 499 35,000  Level Indianapolis Center
Sun 11:17:03 PM 39.6106 -85.8711 351° North 432 497 35,000 -50 Level Indianapolis Center
Sun 11:18:03 PM 39.7422 -85.8978 351° North 432 497 34,900 -50 Descending Indianapolis Center
Sun 11:19:04 PM 39.8614 -85.9217 351° North 430 495 34,900 49 Level Indianapolis Center
Sun 11:20:05 PM 39.9689 -85.9442 351° North 435 501 35,000 49 Climbing Indianapolis Center
Sun 11:21:06 PM 40.0881 -85.9669 352° North 433 498 35,000  Level Indianapolis Center
Sun 11:21:50 PM 40.1819 -86.0167 338° Northwest 428 493 35,000 -457 Level Chicago Center
Sun 11:22:51 PM 40.2814 -86.0992 328° Northwest 423 487 34,200 -885 Descending Chicago Center
Sun 11:23:52 PM 40.3794 -86.1822 327° Northwest 419 482 33,200 -1,574 Descending Chicago Center
Sun 11:24:53 PM 40.4772 -86.2625 328° Northwest 416 479 31,000 -2,826 Descending Chicago Center
Sun 11:25:53 PM 40.5767 -86.3478 327° Northwest 424 488 27,500 -3,223 Descending Chicago Center
Sun 11:26:54 PM 40.6761 -86.4322 327° Northwest 424 488 24,500 -2,754 Descending Chicago Center
Sun 11:27:55 PM 40.7728 -86.5147 327° Northwest 417 480 21,900 -2,508 Descending Chicago Center
Sun 11:28:56 PM 40.8658 -86.5947 327° Northwest 402 463 19,400 -2,331 Descending Chicago Center
Sun 11:29:56 PM 40.9561 -86.6722 327° Northwest 389 448 17,200 -2,479 Descending Chicago Center
Sun 11:30:57 PM 41.0519 -86.7553 327° Northwest 377 434 14,400 -2,705 Descending Chicago Center
Sun 11:31:58 PM 41.1375 -86.8292 327° Northwest 372 428 11,700 -1,672 Descending Chicago Center
Sun 11:32:59 PM 41.2206 -86.9017 327° Northwest 362 417 11,000 -645 Descending Chicago Center
Sun 11:33:59 PM 41.2989 -86.9694 327° Northwest 344 396 10,400 -992 Descending Chicago Center
Sun 11:35:00 PM 41.3681 -87.0300 327° Northwest 306 352 9,000 -1,377 Descending Chicago Center
Sun 11:36:01 PM 41.4339 -87.0878 327° Northwest 290 334 7,600 -1,586 Descending Chicago Center
Sun 11:36:27 PM 41.4667 -87.1333 314° West 283 326 6,700 -1,043 Descending Chicago TRACON
Sun 11:37:33 PM 41.4833 -87.2333 283° West 274 315 6,000 -714 Descending Chicago TRACON
Sun 11:38:33 PM 41.5167 -87.3333 294° West 275 316 5,200 -1,009 Descending Chicago TRACON
Sun 11:39:26 PM 41.5333 -87.4167 285° West 273 314 4,100 -758 Descending Chicago TRACON
Sun 11:40:08 PM 41.5500 -87.4833 288° West 271 312 4,000 -61 Descending Chicago TRACON
Sun 11:41:05 PM 41.5719 -87.5689 289° West 270 311 4,000  Level Chicago Center
Sun 11:42:05 PM 41.6161 -87.6503 306° West 273 314 4,000 -228 Level Chicago Center
Sun 11:42:24 PM 41.6333 -87.6833 305° West 268 308 3,700 -684 Descending Chicago TRACON
Sun 11:43:24 PM 41.6667 -87.7500 304° West 242 278 3,100 -571 Descending Chicago TRACON
Sun 11:44:30 PM 41.7167 -87.8333 309° West 207 238 2,500 -500 Descending Chicago TRACON
Sun 11:45:24 PM 41.7333 -87.8833 294° West 198 228 2,100 -306 Descending Chicago TRACON
Sun 11:46:08 PM 41.7675 -87.9086 331° Northwest 207 238 2,000 -58 Descending Chicago Center
Sun 11:47:08 PM 41.8189 -87.8853 19° North 199 229 2,000  Level Chicago Center
Sun 11:47:24 PM 41.8333 -87.8667 44° Northeast 194 223 2,000  Level Chicago TRACON
Sun 11:48:24 PM 41.8333 -87.8167 90° East 134 154 2,000 -350 Level Chicago TRACON
Sun 11:49:24 PM 41.8167 -87.8000 143° Southeast 112 129 1,300 -700 Descending Chicago TRACON

Login

Don't have an account? Register now (free) for customized features, flight alerts, and more!